createdAt,value
2019-03-06T00:01:10.456Z,15.63
2019-03-06T00:03:40.021Z,15.67
2019-03-06T00:06:16.446Z,15.83
2019-03-06T00:08:40.697Z,16.73
2019-03-06T00:11:10.140Z,15.80
2019-03-06T00:13:39.750Z,16.13
2019-03-06T00:16:09.353Z,16.70
2019-03-06T00:18:38.770Z,16.87
2019-03-06T00:21:08.179Z,16.87
2019-03-06T00:23:37.549Z,15.50
2019-03-06T00:26:07.006Z,14.83
2019-03-06T00:28:36.379Z,16.47
2019-03-06T00:31:05.850Z,14.93
2019-03-06T00:33:35.376Z,16.23
2019-03-06T00:36:06.868Z,16.00
2019-03-06T00:38:36.242Z,14.53
2019-03-06T00:41:10.017Z,13.37
2019-03-06T00:43:39.430Z,12.70
2019-03-06T00:46:10.523Z,11.90
2019-03-06T00:48:39.915Z,11.67
2019-03-06T00:51:09.458Z,12.00
2019-03-06T00:53:38.856Z,11.70
2019-03-06T00:56:08.297Z,11.23
2019-03-06T00:58:37.682Z,12.30
2019-03-06T01:01:07.122Z,14.97
2019-03-06T01:03:36.604Z,12.17
2019-03-06T01:06:06.205Z,12.23
2019-03-06T01:08:35.769Z,13.97
2019-03-06T01:11:05.483Z,13.33
2019-03-06T01:13:34.885Z,12.57
2019-03-06T01:16:04.318Z,13.73
2019-03-06T01:18:33.692Z,13.10
2019-03-06T01:21:03.105Z,15.60
2019-03-06T01:23:32.790Z,14.20
2019-03-06T01:26:02.373Z,14.37
2019-03-06T01:28:31.770Z,15.10
2019-03-06T01:31:01.260Z,15.17
2019-03-06T01:33:35.232Z,15.57
2019-03-06T01:36:18.501Z,18.83
2019-03-06T01:39:01.577Z,19.67
2019-03-06T01:41:32.791Z,19.13
2019-03-06T01:44:16.001Z,18.77
2019-03-06T01:46:45.407Z,18.27
2019-03-06T01:49:14.775Z,19.33
2019-03-06T01:51:44.153Z,18.47
2019-03-06T01:54:13.560Z,22.90
2019-03-06T01:56:42.912Z,20.77
2019-03-06T01:59:12.447Z,19.93
2019-03-06T02:01:42.022Z,21.57
2019-03-06T02:04:11.493Z,21.23
2019-03-06T02:06:40.862Z,21.00
2019-03-06T02:09:10.304Z,26.37
2019-03-06T02:11:39.705Z,22.20
2019-03-06T02:14:09.067Z,21.90
2019-03-06T02:16:38.522Z,22.33
2019-03-06T02:19:07.977Z,23.90
2019-03-06T02:21:37.406Z,21.80
2019-03-06T02:24:06.783Z,20.63
2019-03-06T02:26:36.339Z,22.90
2019-03-06T02:29:05.791Z,23.00
2019-03-06T02:31:35.163Z,23.77
2019-03-06T02:34:04.628Z,20.23
2019-03-06T02:36:34.011Z,21.20
2019-03-06T02:39:04.932Z,20.67
2019-03-06T02:41:34.319Z,21.07
2019-03-06T02:44:03.687Z,21.50
2019-03-06T02:46:33.058Z,21.27
2019-03-06T02:49:02.445Z,20.33
2019-03-06T02:51:32.187Z,20.83
2019-03-06T02:54:01.569Z,20.93
2019-03-06T02:56:30.940Z,19.53
2019-03-06T02:59:05.100Z,17.93
2019-03-06T03:01:36.105Z,19.43
2019-03-06T03:04:07.205Z,19.10
2019-03-06T03:06:38.198Z,18.70
2019-03-06T03:09:13.471Z,18.53
2019-03-06T03:11:42.842Z,16.77
2019-03-06T03:14:12.463Z,17.93
2019-03-06T03:16:41.946Z,18.37
2019-03-06T03:19:11.646Z,17.77
2019-03-06T03:21:41.028Z,19.27
2019-03-06T03:24:10.430Z,19.80
2019-03-06T03:26:39.872Z,18.77
2019-03-06T03:29:09.251Z,18.73
2019-03-06T03:31:38.690Z,20.43
2019-03-06T03:34:08.085Z,17.63
2019-03-06T03:36:37.647Z,19.10
2019-03-06T03:39:07.939Z,17.97
2019-03-06T03:41:37.416Z,19.37
2019-03-06T03:44:06.821Z,17.37
2019-03-06T03:46:36.185Z,18.07
2019-03-06T03:49:05.691Z,17.40
2019-03-06T03:51:35.362Z,18.97
2019-03-06T03:54:04.882Z,17.50
2019-03-06T03:56:34.353Z,19.10
2019-03-06T03:59:03.884Z,19.00
2019-03-06T04:01:33.489Z,18.33
2019-03-06T04:04:04.719Z,18.87
2019-03-06T04:06:34.130Z,19.13
2019-03-06T04:09:04.590Z,18.87
2019-03-06T04:11:34.024Z,20.77
2019-03-06T04:14:03.513Z,19.13
2019-03-06T04:16:33.240Z,18.57
2019-03-06T04:19:02.704Z,22.93
2019-03-06T04:21:32.006Z,21.87
2019-03-06T04:24:01.384Z,21.57
2019-03-06T04:26:30.773Z,19.97
2019-03-06T04:29:00.424Z,23.43
2019-03-06T04:31:29.885Z,20.50
2019-03-06T04:33:59.272Z,19.67
2019-03-06T04:36:28.726Z,19.97
2019-03-06T04:38:58.093Z,20.07
2019-03-06T04:41:27.747Z,20.10
2019-03-06T04:43:57.134Z,20.77
2019-03-06T04:46:26.492Z,19.67
2019-03-06T04:48:55.950Z,24.63
2019-03-06T04:51:25.318Z,36.27
2019-03-06T04:53:54.716Z,27.03
2019-03-06T04:56:24.071Z,23.50
2019-03-06T04:58:53.518Z,24.47
2019-03-06T05:01:22.895Z,22.57
2019-03-06T05:03:52.323Z,22.57
2019-03-06T05:06:21.781Z,23.60
2019-03-06T05:08:52.849Z,22.40
2019-03-06T05:11:22.254Z,24.13
2019-03-06T05:13:51.619Z,22.17
2019-03-06T05:16:22.648Z,22.93
2019-03-06T05:18:53.676Z,22.53
2019-03-06T05:21:23.347Z,23.40
2019-03-06T05:23:54.254Z,26.27
2019-03-06T05:26:23.637Z,26.30
2019-03-06T05:28:53.387Z,25.03
2019-03-06T05:31:22.788Z,23.40
2019-03-06T05:33:52.158Z,22.70
2019-03-06T05:36:27.391Z,24.97
2019-03-06T05:39:08.673Z,25.43
2019-03-06T05:41:41.225Z,23.20
2019-03-06T05:44:10.584Z,23.03
2019-03-06T05:46:39.967Z,22.63
2019-03-06T05:49:09.627Z,23.37
2019-03-06T05:51:38.996Z,25.10
2019-03-06T05:54:08.403Z,25.63
2019-03-06T05:56:39.399Z,27.50
2019-03-06T05:59:08.778Z,25.83
2019-03-06T06:01:57.504Z,25.83
2019-03-06T06:04:27.027Z,26.23
2019-03-06T06:06:56.888Z,25.00
2019-03-06T06:09:32.605Z,27.07
2019-03-06T06:12:02.066Z,26.67
2019-03-06T06:14:31.448Z,27.13
2019-03-06T06:17:02.566Z,26.50
2019-03-06T06:19:33.559Z,27.57
2019-03-06T06:22:20.946Z,27.07
2019-03-06T06:24:50.830Z,25.60
2019-03-06T06:27:21.935Z,23.47
2019-03-06T06:29:53.575Z,25.93
2019-03-06T06:32:23.061Z,23.37
2019-03-06T06:34:52.434Z,25.83
2019-03-06T06:37:21.826Z,22.13
2019-03-06T06:39:51.215Z,21.93
2019-03-06T06:42:20.587Z,21.10
2019-03-06T06:44:49.979Z,21.67
2019-03-06T06:47:31.369Z,34.57
2019-03-06T06:50:00.767Z,23.10
2019-03-06T06:53:06.660Z,20.97
2019-03-06T06:55:39.138Z,19.57
2019-03-06T06:58:14.658Z,20.03
2019-03-06T07:01:18.513Z,22.43
2019-03-06T07:04:07.178Z,22.33
2019-03-06T07:06:43.729Z,21.30
2019-03-06T07:09:14.924Z,21.53
2019-03-06T07:12:03.868Z,20.17
2019-03-06T07:14:40.612Z,20.33
2019-03-06T07:17:11.802Z,19.77
2019-03-06T07:19:42.850Z,18.77
2019-03-06T07:22:28.983Z,23.47
2019-03-06T07:25:00.310Z,18.70
2019-03-06T07:27:37.592Z,18.47
2019-03-06T07:30:14.720Z,21.30
2019-03-06T07:32:48.720Z,18.47
2019-03-06T07:35:59.955Z,22.07
2019-03-06T07:38:29.417Z,21.90
2019-03-06T07:41:06.204Z,19.53
2019-03-06T07:43:52.579Z,23.27
2019-03-06T07:46:42.068Z,17.03
2019-03-06T07:49:25.258Z,16.60
2019-03-06T07:52:05.212Z,17.83
2019-03-06T07:54:47.907Z,16.67
2019-03-06T07:57:18.934Z,14.60
2019-03-06T07:59:48.318Z,16.00
2019-03-06T08:02:24.025Z,16.40
2019-03-06T08:04:56.451Z,14.60
2019-03-06T08:07:25.816Z,13.57
2019-03-06T08:09:55.237Z,14.57
2019-03-06T08:12:26.279Z,12.77
2019-03-06T08:15:09.250Z,13.77
2019-03-06T08:17:51.850Z,12.33
2019-03-06T08:20:22.955Z,14.80
2019-03-06T08:22:54.018Z,13.43
2019-03-06T08:25:25.097Z,15.57
2019-03-06T08:27:54.484Z,14.50
2019-03-06T08:30:25.343Z,12.33
2019-03-06T08:32:54.780Z,12.77
2019-03-06T08:35:24.151Z,12.33
2019-03-06T08:37:53.504Z,11.17
2019-03-06T08:40:22.957Z,10.33
2019-03-06T08:42:53.008Z,14.43
2019-03-06T08:45:24.125Z,14.03
2019-03-06T08:47:55.337Z,12.93
2019-03-06T08:50:26.608Z,13.67
2019-03-06T08:53:11.555Z,9.70
2019-03-06T08:55:45.815Z,12.27
2019-03-06T08:58:17.270Z,9.90
2019-03-06T09:00:52.625Z,13.57
2019-03-06T09:03:34.637Z,7.97
2019-03-06T09:06:06.814Z,8.73
2019-03-06T09:08:37.912Z,9.03
2019-03-06T09:11:27.196Z,12.00
2019-03-06T09:14:04.135Z,9.03
2019-03-06T09:16:35.242Z,8.27
2019-03-06T09:19:06.819Z,9.07
2019-03-06T09:21:50.263Z,13.50
2019-03-06T09:24:33.205Z,8.97
2019-03-06T09:27:04.315Z,8.47
2019-03-06T09:29:35.431Z,11.87
2019-03-06T09:32:06.590Z,8.63
2019-03-06T09:34:49.580Z,8.27
2019-03-06T09:37:29.466Z,13.37
2019-03-06T09:40:00.543Z,12.43
2019-03-06T09:42:34.528Z,10.07
2019-03-06T09:45:06.972Z,7.43
2019-03-06T09:47:52.882Z,7.70
2019-03-06T09:50:32.727Z,14.97
2019-03-06T09:53:13.277Z,9.20
2019-03-06T09:55:50.908Z,9.07
2019-03-06T09:58:37.316Z,7.30
2019-03-06T10:01:08.405Z,9.30
2019-03-06T10:03:51.525Z,9.63
2019-03-06T10:06:25.005Z,14.70
2019-03-06T10:08:58.784Z,8.30
2019-03-06T10:11:41.916Z,9.67
2019-03-06T10:14:21.879Z,8.17
2019-03-06T10:16:58.876Z,9.50
2019-03-06T10:19:29.937Z,9.67
2019-03-06T10:21:59.381Z,5.30
2019-03-06T10:24:28.845Z,5.80
2019-03-06T10:27:00.752Z,7.60
2019-03-06T10:29:33.117Z,6.63
2019-03-06T10:32:02.576Z,5.70
2019-03-06T10:34:32.323Z,4.83
2019-03-06T10:37:01.815Z,7.03
2019-03-06T10:39:31.588Z,8.13
2019-03-06T10:42:01.015Z,6.73
2019-03-06T10:44:30.456Z,6.17
2019-03-06T10:46:59.961Z,8.20
2019-03-06T10:49:29.691Z,5.23
2019-03-06T10:51:59.228Z,5.47
2019-03-06T10:54:28.783Z,6.53
2019-03-06T10:56:58.304Z,7.37
2019-03-06T10:59:27.728Z,5.40
2019-03-06T11:01:57.270Z,8.03
2019-03-06T11:04:28.352Z,7.90
2019-03-06T11:06:57.918Z,6.87
2019-03-06T11:09:27.729Z,4.23
2019-03-06T11:11:57.254Z,6.33
2019-03-06T11:14:27.160Z,4.60
2019-03-06T11:16:56.721Z,3.93
2019-03-06T11:19:26.630Z,5.87
2019-03-06T11:21:56.232Z,6.47
2019-03-06T11:24:25.664Z,6.50
2019-03-06T11:26:55.372Z,8.00
2019-03-06T11:29:24.999Z,4.33
2019-03-06T11:31:54.448Z,4.50
2019-03-06T11:34:24.170Z,4.57
2019-03-06T11:36:53.883Z,5.17
2019-03-06T11:39:23.914Z,6.90
2019-03-06T11:41:53.354Z,4.50
2019-03-06T11:44:22.801Z,4.93
2019-03-06T11:46:53.082Z,6.10
2019-03-06T11:49:22.963Z,5.13
2019-03-06T11:51:52.653Z,4.37
2019-03-06T11:54:22.009Z,4.93
2019-03-06T11:56:53.082Z,3.33
2019-03-06T11:59:22.536Z,3.47
2019-03-06T12:01:51.973Z,3.43
2019-03-06T12:04:21.570Z,4.67
2019-03-06T12:06:50.929Z,2.17
2019-03-06T12:09:27.934Z,4.03
2019-03-06T12:11:57.644Z,3.27
2019-03-06T12:14:27.160Z,2.53
2019-03-06T12:16:58.238Z,2.60
2019-03-06T12:19:27.730Z,7.50
2019-03-06T12:21:57.765Z,4.37
2019-03-06T12:24:27.298Z,7.00
2019-03-06T12:26:56.785Z,5.30
2019-03-06T12:29:27.789Z,3.87
2019-03-06T12:31:57.359Z,2.87
2019-03-06T12:34:27.038Z,5.10
2019-03-06T12:36:56.401Z,4.53
2019-03-06T12:39:25.747Z,4.57
2019-03-06T12:41:55.121Z,3.87
2019-03-06T12:44:24.584Z,4.63
2019-03-06T12:46:54.293Z,6.30
2019-03-06T12:49:24.072Z,4.40
2019-03-06T12:51:54.654Z,4.23
2019-03-06T12:54:24.320Z,4.47
2019-03-06T12:56:53.830Z,3.97
2019-03-06T12:59:23.506Z,3.40
2019-03-06T13:01:53.058Z,5.27
2019-03-06T13:04:22.419Z,4.03
2019-03-06T13:06:51.886Z,2.83
2019-03-06T13:09:22.808Z,5.57
2019-03-06T13:11:52.365Z,2.97
2019-03-06T13:14:22.290Z,3.73
2019-03-06T13:16:52.026Z,6.13
2019-03-06T13:19:21.629Z,4.07
2019-03-06T13:21:51.010Z,5.13
2019-03-06T13:24:20.447Z,3.13
2019-03-06T13:26:49.817Z,2.77
2019-03-06T13:29:19.468Z,4.20
2019-03-06T13:31:48.830Z,9.83
2019-03-06T13:34:22.658Z,2.57
2019-03-06T13:36:52.182Z,5.77
2019-03-06T13:39:21.683Z,5.57
2019-03-06T13:41:51.404Z,2.90
2019-03-06T13:44:20.878Z,3.40
2019-03-06T13:46:50.300Z,3.37
2019-03-06T13:49:19.769Z,4.03
2019-03-06T13:51:49.237Z,2.87
2019-03-06T13:54:18.695Z,3.87
2019-03-06T13:56:48.343Z,6.57
2019-03-06T13:59:17.712Z,3.93
2019-03-06T14:01:47.167Z,4.50
2019-03-06T14:04:16.756Z,3.87
2019-03-06T14:06:46.130Z,3.50
2019-03-06T14:09:15.713Z,4.53
2019-03-06T14:11:45.589Z,4.83
2019-03-06T14:14:15.030Z,5.07
2019-03-06T14:16:44.436Z,4.47
2019-03-06T14:19:13.807Z,3.60
2019-03-06T14:21:43.410Z,6.23
2019-03-06T14:24:12.945Z,3.57
2019-03-06T14:26:42.404Z,2.40
2019-03-06T14:29:12.326Z,4.70
2019-03-06T14:31:41.950Z,8.40
2019-03-06T14:34:11.342Z,5.07
2019-03-06T14:36:40.774Z,4.50
2019-03-06T14:39:27.080Z,4.97
2019-03-06T14:41:57.697Z,4.27
2019-03-06T14:44:27.178Z,3.83
2019-03-06T14:46:56.772Z,4.57
2019-03-06T14:49:26.463Z,3.63
2019-03-06T14:51:55.907Z,3.73
2019-03-06T14:54:25.420Z,4.07
2019-03-06T14:56:54.803Z,3.23
2019-03-06T14:59:24.253Z,6.40
2019-03-06T15:01:53.725Z,3.83
2019-03-06T15:04:23.182Z,4.70
2019-03-06T15:06:52.636Z,4.07
2019-03-06T15:09:24.622Z,2.97
2019-03-06T15:11:54.855Z,3.10
2019-03-06T15:14:24.205Z,7.23
2019-03-06T15:16:53.608Z,5.80
2019-03-06T15:19:23.322Z,4.37
2019-03-06T15:21:52.756Z,3.87
2019-03-06T15:24:22.290Z,5.20
2019-03-06T15:26:51.668Z,2.90
2019-03-06T15:29:21.210Z,4.17
2019-03-06T15:31:51.630Z,2.30
2019-03-06T15:34:21.240Z,2.90
2019-03-06T15:36:50.687Z,4.63
2019-03-06T15:39:23.389Z,4.63
2019-03-06T15:42:00.098Z,3.87
2019-03-06T15:44:23.943Z,4.43
2019-03-06T15:46:53.555Z,2.60
2019-03-06T15:49:23.165Z,3.40
2019-03-06T15:51:52.987Z,3.73
2019-03-06T15:54:22.689Z,3.70
2019-03-06T15:56:52.246Z,3.33
2019-03-06T15:59:22.081Z,3.13
2019-03-06T16:01:51.526Z,1.97
2019-03-06T16:04:21.048Z,5.33
2019-03-06T16:06:53.930Z,4.23
2019-03-06T16:09:21.682Z,3.60
2019-03-06T16:11:51.394Z,4.80
2019-03-06T16:14:23.835Z,3.37
2019-03-06T16:16:53.307Z,3.90
2019-03-06T16:19:22.744Z,5.63
2019-03-06T16:21:52.209Z,3.40
2019-03-06T16:24:22.919Z,4.00
2019-03-06T16:26:52.919Z,5.40
2019-03-06T16:29:23.768Z,3.40
2019-03-06T16:31:53.342Z,5.37
2019-03-06T16:34:22.812Z,4.50
2019-03-06T16:36:52.139Z,3.43
2019-03-06T16:39:22.185Z,3.13
2019-03-06T16:41:51.774Z,4.73
2019-03-06T16:44:21.241Z,3.60
2019-03-06T16:46:50.743Z,6.60
2019-03-06T16:49:20.126Z,3.87
2019-03-06T16:51:49.632Z,4.53
2019-03-06T16:54:20.198Z,8.13
2019-03-06T16:56:49.572Z,5.50
2019-03-06T16:59:19.128Z,5.83
2019-03-06T17:01:48.495Z,7.27
2019-03-06T17:04:17.944Z,2.80
2019-03-06T17:06:47.776Z,5.07
2019-03-06T17:09:17.586Z,4.47
2019-03-06T17:11:46.950Z,5.73
2019-03-06T17:14:16.507Z,6.97
2019-03-06T17:16:46.059Z,4.20
2019-03-06T17:19:17.090Z,4.17
2019-03-06T17:21:48.131Z,5.20
2019-03-06T17:24:17.600Z,3.93
2019-03-06T17:26:47.793Z,4.43
2019-03-06T17:29:17.396Z,3.53
2019-03-06T17:31:47.003Z,3.60
2019-03-06T17:34:16.940Z,3.93
2019-03-06T17:36:48.074Z,5.97
2019-03-06T17:39:17.633Z,2.63
2019-03-06T17:41:46.992Z,4.87
2019-03-06T17:44:16.442Z,5.30
2019-03-06T17:46:45.846Z,6.40
2019-03-06T17:49:15.562Z,4.27
2019-03-06T17:51:45.047Z,5.57
2019-03-06T17:54:14.444Z,5.50
2019-03-06T17:56:43.914Z,5.77
2019-03-06T17:59:13.344Z,4.37
2019-03-06T18:01:42.800Z,4.67
2019-03-06T18:04:15.020Z,8.00
2019-03-06T18:06:44.584Z,3.87
2019-03-06T18:09:16.457Z,3.00
2019-03-06T18:11:45.937Z,6.87
2019-03-06T18:14:15.468Z,6.47
2019-03-06T18:16:44.845Z,5.00
2019-03-06T18:19:14.393Z,5.80
2019-03-06T18:21:43.843Z,3.70
2019-03-06T18:24:13.315Z,7.97
2019-03-06T18:26:42.690Z,6.30
2019-03-06T18:29:12.151Z,5.77
2019-03-06T18:31:41.576Z,4.20
2019-03-06T18:34:11.040Z,7.00
2019-03-06T18:36:40.429Z,5.27
2019-03-06T18:39:11.539Z,6.43
2019-03-06T18:41:42.829Z,7.97
2019-03-06T18:44:12.017Z,3.30
2019-03-06T18:46:41.382Z,4.63
2019-03-06T18:49:10.875Z,5.10
2019-03-06T18:51:41.855Z,4.23
2019-03-06T18:54:11.844Z,5.20
2019-03-06T18:56:42.705Z,4.60
2019-03-06T18:59:12.267Z,6.97
2019-03-06T19:01:41.715Z,6.07
2019-03-06T19:04:11.163Z,5.03
2019-03-06T19:06:41.396Z,7.67
2019-03-06T19:09:11.039Z,14.10
2019-03-06T19:11:40.628Z,13.47
2019-03-06T19:14:10.065Z,8.60
2019-03-06T19:16:39.583Z,8.17
2019-03-06T19:19:09.052Z,28.33
2019-03-06T19:21:38.541Z,37.53
2019-03-06T19:24:08.046Z,12.37
2019-03-06T19:26:37.857Z,12.47
2019-03-06T19:29:07.401Z,11.00
2019-03-06T19:31:36.945Z,12.47
2019-03-06T19:34:06.454Z,11.97
2019-03-06T19:36:35.934Z,18.00
2019-03-06T19:39:06.193Z,9.93
2019-03-06T19:41:36.188Z,7.80
2019-03-06T19:44:05.778Z,21.20
2019-03-06T19:46:35.255Z,19.47
2019-03-06T19:49:05.071Z,13.87
2019-03-06T19:51:34.739Z,8.60
2019-03-06T19:54:04.646Z,7.97
2019-03-06T19:56:34.269Z,5.83
2019-03-06T19:59:16.467Z,6.03
2019-03-06T20:01:46.018Z,6.67
2019-03-06T20:04:15.561Z,8.83
2019-03-06T20:06:45.091Z,6.40
2019-03-06T20:09:26.001Z,7.30
2019-03-06T20:11:58.321Z,6.93
2019-03-06T20:14:26.750Z,8.30
2019-03-06T20:16:56.642Z,7.83
2019-03-06T20:19:26.207Z,11.90
2019-03-06T20:21:55.683Z,27.97
2019-03-06T20:24:25.142Z,14.57
2019-03-06T20:26:54.731Z,9.53
2019-03-06T20:29:24.198Z,6.90
2019-03-06T20:31:53.752Z,6.97
2019-03-06T20:34:23.219Z,10.57
2019-03-06T20:36:53.680Z,8.07
2019-03-06T20:39:23.183Z,8.10
2019-03-06T20:41:52.624Z,8.07
2019-03-06T20:44:22.070Z,10.33
2019-03-06T20:46:51.728Z,8.30
2019-03-06T20:49:21.429Z,8.20
2019-03-06T20:51:51.313Z,6.87
2019-03-06T20:54:20.891Z,8.63
2019-03-06T20:56:50.344Z,7.70
2019-03-06T20:59:19.989Z,7.73
2019-03-06T21:01:49.513Z,7.23
2019-03-06T21:04:20.210Z,6.83
2019-03-06T21:06:52.358Z,9.77
2019-03-06T21:09:21.838Z,7.73
2019-03-06T21:11:51.345Z,9.00
2019-03-06T21:14:20.731Z,7.70
2019-03-06T21:16:50.438Z,8.90
2019-03-06T21:19:19.896Z,9.30
2019-03-06T21:21:49.355Z,8.73
2019-03-06T21:24:18.760Z,8.10
2019-03-06T21:26:48.241Z,6.57
2019-03-06T21:29:17.689Z,10.77
2019-03-06T21:31:47.194Z,14.90
2019-03-06T21:34:16.668Z,18.83
2019-03-06T21:36:46.132Z,14.63
2019-03-06T21:39:22.954Z,13.80
2019-03-06T21:41:52.446Z,13.53
2019-03-06T21:44:21.999Z,10.87
2019-03-06T21:46:51.550Z,12.10
2019-03-06T21:49:21.315Z,11.43
2019-03-06T21:51:50.754Z,7.80
2019-03-06T21:54:20.627Z,8.77
2019-03-06T21:56:50.092Z,26.00
2019-03-06T21:59:19.560Z,19.20
2019-03-06T22:01:49.005Z,11.47
2019-03-06T22:04:18.499Z,11.33
2019-03-06T22:06:47.983Z,7.97
2019-03-06T22:09:17.721Z,12.53
2019-03-06T22:11:47.094Z,15.67
2019-03-06T22:14:16.538Z,9.33
2019-03-06T22:16:45.997Z,8.50
2019-03-06T22:19:15.378Z,7.53
2019-03-06T22:21:44.786Z,7.97
2019-03-06T22:24:14.186Z,10.53
2019-03-06T22:26:43.638Z,11.73
2019-03-06T22:29:13.092Z,9.67
2019-03-06T22:31:42.550Z,10.10
2019-03-06T22:34:11.982Z,8.10
2019-03-06T22:36:41.363Z,8.50
2019-03-06T22:39:11.377Z,6.87
2019-03-06T22:41:40.858Z,10.17
2019-03-06T22:44:10.372Z,18.03
2019-03-06T22:46:39.836Z,39.87
2019-03-06T22:49:09.306Z,18.90
2019-03-06T22:51:38.747Z,18.37
2019-03-06T22:54:08.140Z,14.73
2019-03-06T22:56:37.513Z,13.27
2019-03-06T22:59:07.278Z,9.37
2019-03-06T23:01:37.012Z,9.80
2019-03-06T23:04:06.840Z,8.37
2019-03-06T23:06:36.650Z,9.63
2019-03-06T23:09:09.228Z,14.97
2019-03-06T23:11:39.268Z,13.87
2019-03-06T23:14:08.947Z,9.90
2019-03-06T23:16:38.536Z,7.40
2019-03-06T23:19:08.400Z,9.40
2019-03-06T23:21:37.850Z,11.63
2019-03-06T23:24:07.275Z,10.00
2019-03-06T23:26:42.695Z,9.53
2019-03-06T23:29:08.303Z,12.80
2019-03-06T23:31:38.113Z,7.47
2019-03-06T23:34:07.750Z,7.83
2019-03-06T23:36:37.149Z,8.83
2019-03-06T23:39:09.681Z,8.13
2019-03-06T23:41:39.201Z,8.90
2019-03-06T23:44:08.582Z,10.23
2019-03-06T23:46:37.970Z,7.87
2019-03-06T23:49:07.429Z,8.77
2019-03-06T23:51:38.470Z,6.10
2019-03-06T23:54:07.898Z,7.03
2019-03-06T23:56:37.355Z,7.80
2019-03-06T23:59:07.020Z,5.87
